Orafisk — LK4492 — position and weather

sailwx.info

Track history (hours):
 
Tides and Currents Weather Stations Pressure Air Temp Water Temp Dewpoint Dewpoint Depression Visibility Wind Speed Wind Dir Waves Ship Positions

Orafisk

Last reported at 2018-Apr-06 16:23 UTC. Time now 2018-Jun-19 14:24 UTC.
Position N 69°49' E 019°59'.
Warning: this ship's position is months out of date.

Length 18 m.

Type: Fishing. MMSI: 257166220.

Date/timePositionNaut miles runAvg speedWind from/ knotsBaromVisibWave heightAir tempDewpointWater temp
2018-Apr-06 16:23N 69°49' E 019°59'0 0.0
2018-Apr-06 15:59N 69°49' E 019°59'0 0.0
2018-Apr-06 15:30N 69°49' E 019°59'0 0.0
2018-Apr-06 15:00N 69°49' E 019°59'0 0.0
2018-Apr-06 14:30N 69°49' E 019°59'6 0.2
2018-Apr-05 04:14N 69°55' E 020°00'0 1.4
2018-Apr-05 04:00N 69°55' E 019°60'1 1.4
2018-Apr-05 03:29N 69°54' E 019°59'1 1.5
2018-Apr-05 03:00N 69°53' E 019°58'1 2.1
2018-Apr-05 02:30N 69°52' E 019°56'3 5.8
2018-Apr-05 02:00N 69°50' E 020°00'1 2.6
2018-Apr-05 01:30N 69°49' E 019°59'0 0.0
2018-Apr-05 01:00N 69°49' E 019°59'0 0.0
2018-Apr-05 00:30N 69°49' E 019°59'0 0.0
2018-Apr-05 00:00N 69°49' E 019°59'  
Track history (hours):
 
Tides and Currents Weather Stations Pressure Air Temp Water Temp Dewpoint Dewpoint Depression Visibility Wind Speed Wind Dir Waves Ship Positions

Orafisk

Last reported at 2018-Apr-06 16:23 UTC. Time now 2018-Jun-19 14:24 UTC.
Position N 69°49' E 019°59'.
Warning: this ship's position is months out of date.

Length 18 m.

Type: Fishing. MMSI: 257166220.

Date/timePositionNaut miles runAvg speedWind from/ knotsBaromVisibWave heightAir tempDewpointWater temp
2018-Apr-06 16:23N 69°49' E 019°59'0 0.0
2018-Apr-06 15:59N 69°49' E 019°59'0 0.0
2018-Apr-06 15:30N 69°49' E 019°59'0 0.0
2018-Apr-06 15:00N 69°49' E 019°59'0 0.0
2018-Apr-06 14:30N 69°49' E 019°59'6 0.2
2018-Apr-05 04:14N 69°55' E 020°00'0 1.4
2018-Apr-05 04:00N 69°55' E 019°60'1 1.4
2018-Apr-05 03:29N 69°54' E 019°59'1 1.5
2018-Apr-05 03:00N 69°53' E 019°58'1 2.1
2018-Apr-05 02:30N 69°52' E 019°56'3 5.8
2018-Apr-05 02:00N 69°50' E 020°00'1 2.6
2018-Apr-05 01:30N 69°49' E 019°59'0 0.0
2018-Apr-05 01:00N 69°49' E 019°59'0 0.0
2018-Apr-05 00:30N 69°49' E 019°59'0 0.0
2018-Apr-05 00:00N 69°49' E 019°59'  

Dump ship's entire track history